Time;durP1;ratioP1;P1;durP2;ratioP2;P2;SDS_P1;SDS_P2;PMS_P1;PMS_P2;Temp;Humidity;BMP_temperature;BMP_pressure;BME280_temperature;BME280_humidity;BME280_pressure;Samples;Min_cycle;Max_cycle;Signal;HPM_P1;HPM_P2
2022/05/08 00:02:16;;;;;;;9.93;7.40;;;;;;;16.26;49.78;98461.63;8519724;27;20232;-72
2022/05/08 00:06:20;;;;;;;7.80;7.00;;;;;;;16.19;50.04;98461.16;8519849;27;20292;-72
2022/05/08 00:10:23;;;;;;;9.60;7.20;;;;;;;16.07;50.01;98461.88;8519149;27;20397;-72
2022/05/08 00:14:26;;;;;;;11.53;7.77;;;;;;;16.01;50.30;98465.69;8519571;27;20233;-72
2022/05/08 00:18:31;;;;;;;8.70;7.00;;;;;;;15.92;50.18;98459.25;8518297;27;20250;-72
2022/05/08 00:22:34;;;;;;;9.50;7.13;;;;;;;15.88;50.44;98465.59;8519132;27;20236;-72
2022/05/08 00:26:37;;;;;;;10.10;7.80;;;;;;;15.93;51.05;98457.47;8519154;27;20228;-73
2022/05/08 00:30:40;;;;;;;8.63;7.73;;;;;;;15.74;51.33;98457.69;8519106;27;20232;-72
2022/05/08 00:34:44;;;;;;;8.60;7.13;;;;;;;15.83;51.63;98460.59;8518913;27;20232;-73
2022/05/08 00:38:47;;;;;;;9.50;7.10;;;;;;;15.69;51.52;98455.31;8518861;27;20523;-73
2022/05/08 00:42:50;;;;;;;8.00;7.07;;;;;;;15.79;51.24;98460.88;8518410;27;20236;-72
2022/05/08 00:46:56;;;;;;;8.30;7.40;;;;;;;15.67;51.20;98470.25;8518222;27;20232;-72
2022/05/08 00:51:01;;;;;;;11.57;7.90;;;;;;;15.55;51.83;98460.47;8518294;27;20228;-72
2022/05/08 00:55:10;;;;;;;9.33;7.40;;;;;;;15.59;51.60;98451.53;8518354;27;20233;-72
2022/05/08 00:59:14;;;;;;;8.53;7.70;;;;;;;15.54;51.65;98451.81;8518047;27;20229;-72
2022/05/08 01:03:17;;;;;;;11.37;7.87;;;;;;;15.49;51.73;98453.00;8517832;27;20539;-72
2022/05/08 01:07:21;;;;;;;8.93;7.70;;;;;;;15.52;51.92;98458.06;8517822;27;20243;-72
2022/05/08 01:11:25;;;;;;;8.37;7.43;;;;;;;15.52;51.58;98451.06;8517039;27;20225;-72
2022/05/08 01:15:28;;;;;;;9.67;7.33;;;;;;;15.49;51.41;98458.22;8517120;27;20228;-72
2022/05/08 01:19:31;;;;;;;8.83;7.53;;;;;;;15.45;51.80;98457.56;8517509;27;20419;-72
2022/05/08 01:23:35;;;;;;;10.07;8.17;;;;;;;15.39;52.52;98450.91;8517214;27;20236;-72
2022/05/08 01:27:38;;;;;;;10.10;8.13;;;;;;;15.33;52.69;98450.44;8517015;27;20221;-73
2022/05/08 01:31:41;;;;;;;8.90;8.00;;;;;;;15.32;52.42;98448.72;8516622;27;20235;-72
2022/05/08 01:35:44;;;;;;;8.60;7.80;;;;;;;15.22;51.95;98449.25;8516876;27;20231;-72
2022/05/08 01:39:49;;;;;;;8.87;7.60;;;;;;;15.20;51.85;98448.50;8516670;27;20225;-72
2022/05/08 01:43:52;;;;;;;8.87;7.90;;;;;;;15.03;52.59;98451.19;8516365;27;20228;-72
2022/05/08 01:52:16;;;;;;;8.00;7.30;;;;;;;14.88;52.32;98450.25;8516134;27;20547;-72
2022/05/08 01:56:20;;;;;;;9.60;7.10;;;;;;;14.91;52.49;98457.91;8516010;27;20233;-72
2022/05/08 02:00:24;;;;;;;8.10;7.30;;;;;;;14.89;52.03;98451.09;8515543;27;20232;-72
2022/05/08 02:04:27;;;;;;;9.20;7.60;;;;;;;14.86;52.24;98460.75;8515685;27;20229;-72
2022/05/08 02:08:30;;;;;;;9.83;6.70;;;;;;;14.78;52.07;98464.72;8515874;27;20262;-72
2022/05/08 02:12:34;;;;;;;7.83;7.03;;;;;;;14.69;52.37;98452.16;8515444;27;20458;-73
2022/05/08 02:16:37;;;;;;;9.83;7.20;;;;;;;14.78;52.22;98457.72;8515144;27;20232;-73
2022/05/08 02:20:41;;;;;;;9.57;7.17;;;;;;;14.74;52.44;98458.81;8515383;27;20224;-72
2022/05/08 02:24:44;;;;;;;9.13;7.37;;;;;;;14.83;52.27;98460.06;8515100;27;20418;-72
2022/05/08 02:28:49;;;;;;;9.13;7.20;;;;;;;14.61;52.65;98460.41;8515319;27;20231;-72
2022/05/08 02:32:53;;;;;;;9.10;7.20;;;;;;;14.62;52.41;98462.06;8515433;27;20504;-73
2022/05/08 02:36:55;;;;;;;7.90;7.10;;;;;;;14.62;52.58;98460.31;8515151;27;20305;-72
2022/05/08 02:40:59;;;;;;;8.47;7.63;;;;;;;14.50;52.99;98463.53;8515053;27;20409;-72
2022/05/08 02:45:03;;;;;;;8.87;7.70;;;;;;;14.45;53.02;98461.19;8514606;27;20243;-72
2022/05/08 02:49:06;;;;;;;9.43;7.50;;;;;;;14.49;52.74;98459.25;8515117;27;20229;-73
2022/05/08 02:53:09;;;;;;;8.07;7.27;;;;;;;14.47;52.57;98459.34;8514980;27;20232;-72
2022/05/08 03:01:33;;;;;;;8.43;7.33;;;;;;;14.36;52.60;98460.81;8514415;27;20224;-72
2022/05/08 03:05:37;;;;;;;10.47;7.40;;;;;;;14.35;52.39;98444.31;8514772;27;20244;-72
2022/05/08 03:09:40;;;;;;;8.63;7.67;;;;;;;14.23;52.68;98455.38;8514749;27;20239;-72
2022/05/08 03:13:44;;;;;;;8.10;7.30;;;;;;;14.20;52.96;98459.00;8514693;27;20528;-72
2022/05/08 03:17:48;;;;;;;10.73;8.07;;;;;;;14.22;52.72;98471.94;8514726;27;20232;-72
2022/05/08 03:21:51;;;;;;;8.07;7.27;;;;;;;14.30;53.01;98471.53;8514537;27;20224;-72
2022/05/08 03:25:54;;;;;;;11.73;7.87;;;;;;;14.18;52.94;98468.63;8514384;27;20443;-72
2022/05/08 03:29:58;;;;;;;9.23;8.33;;;;;;;14.08;52.94;98468.25;8514355;27;20237;-72
2022/05/08 03:34:03;;;;;;;9.13;7.60;;;;;;;14.12;52.84;98471.56;8514190;27;20246;-72
2022/05/08 03:38:06;;;;;;;9.93;7.60;;;;;;;14.19;53.12;98470.34;8514326;27;20389;-72
2022/05/08 03:42:09;;;;;;;9.03;8.10;;;;;;;14.02;53.44;98468.56;8514317;27;20239;-72
2022/05/08 03:46:13;;;;;;;13.33;8.13;;;;;;;14.03;53.40;98470.28;8514033;27;20439;-72
2022/05/08 03:50:18;;;;;;;8.80;7.87;;;;;;;14.00;53.29;98473.03;8513875;27;20229;-72
2022/05/08 03:54:21;;;;;;;8.87;7.97;;;;;;;14.03;53.20;98470.28;8516774;27;20240;-72
2022/05/08 03:58:24;;;;;;;10.27;7.70;;;;;;;14.13;53.04;98468.03;8519784;27;20492;-72
2022/05/08 04:02:27;;;;;;;8.90;8.00;;;;;;;13.96;53.50;98476.69;8519930;27;20228;-73
2022/05/08 04:06:37;;;;;;;8.70;7.90;;;;;;;13.99;53.80;98478.31;8519797;27;20240;-72
2022/05/08 04:10:40;;;;;;;10.77;7.87;;;;;;;14.02;53.19;98483.38;8519580;27;20247;-72
2022/05/08 04:14:43;;;;;;;9.27;7.33;;;;;;;13.99;52.47;98488.72;8519530;27;20228;-72
2022/05/08 04:18:48;;;;;;;13.33;8.17;;;;;;;14.03;53.21;98485.91;8519388;27;20221;-73
2022/05/08 04:27:13;;;;;;;8.50;7.70;;;;;;;13.89;54.40;98504.78;8519230;27;20412;-72
2022/05/08 04:31:15;;;;;;;10.63;8.60;;;;;;;13.98;54.67;98516.53;8519095;27;20527;-72
2022/05/08 04:35:19;;;;;;;9.70;8.70;;;;;;;14.11;54.60;98510.69;8518873;27;20232;-73
2022/05/08 04:39:23;;;;;;;8.87;7.97;;;;;;;14.08;53.98;98509.94;8518806;27;20426;-73
2022/05/08 04:43:26;;;;;;;9.70;8.60;;;;;;;14.08;54.33;98515.13;8518445;27;20236;-73
2022/05/08 04:47:29;;;;;;;10.40;8.70;;;;;;;14.12;54.22;98510.63;8518542;27;20228;-73
2022/05/08 04:51:33;;;;;;;10.47;8.37;;;;;;;14.22;53.87;98511.00;8518485;27;20233;-73
2022/05/08 04:55:37;;;;;;;8.60;7.80;;;;;;;14.34;52.89;98510.38;8518259;27;20247;-73
2022/05/08 04:59:40;;;;;;;8.77;7.80;;;;;;;14.40;53.05;98519.66;8518238;27;20431;-73
2022/05/08 05:03:43;;;;;;;9.33;8.33;;;;;;;14.40;53.80;98525.72;8517701;27;20242;-73
2022/05/08 05:07:46;;;;;;;9.20;8.30;;;;;;;14.53;53.66;98531.13;8517226;27;20511;-72
2022/05/08 05:11:51;;;;;;;9.33;8.27;;;;;;;14.64;54.24;98530.59;8517401;27;20228;-73
2022/05/08 05:15:54;;;;;;;9.30;8.47;;;;;;;14.66;54.31;98529.63;8517571;27;20234;-73
2022/05/08 05:19:57;;;;;;;10.87;8.50;;;;;;;14.89;53.49;98539.75;8517416;27;20241;-72
2022/05/08 05:24:01;;;;;;;11.40;9.03;;;;;;;15.01;53.47;98534.72;8517317;27;20233;-73
2022/05/08 05:28:06;;;;;;;9.40;8.43;;;;;;;15.11;53.12;98529.03;8517337;27;20229;-73
2022/05/08 05:32:10;;;;;;;9.03;8.13;;;;;;;15.25;52.99;98529.13;8516952;27;20228;-73
2022/05/08 05:36:13;;;;;;;8.40;7.70;;;;;;;15.30;53.66;98534.09;8516726;27;20233;-72
2022/05/08 05:40:18;;;;;;;10.67;8.13;;;;;;;15.40;52.83;98533.50;8516742;27;20229;-72
2022/05/08 05:44:22;;;;;;;9.23;8.43;;;;;;;15.53;53.43;98532.81;8516405;27;20244;-72
2022/05/08 05:48:25;;;;;;;9.20;7.43;;;;;;;15.72;53.01;98530.03;8516144;27;20330;-72
2022/05/08 05:52:28;;;;;;;9.87;7.00;;;;;;;15.79;52.45;98526.16;8516074;27;20224;-72
2022/05/08 05:56:31;;;;;;;7.93;7.00;;;;;;;15.99;52.07;98536.31;8516092;27;20554;-72
2022/05/08 06:00:36;;;;;;;8.80;7.50;;;;;;;16.06;52.58;98534.19;8516039;27;20228;-73
2022/05/08 06:04:44;;;;;;;7.50;6.43;;;;;;;16.36;52.12;98534.19;8515877;27;20239;-73
2022/05/08 06:08:47;;;;;;;11.53;6.37;;;;;;;16.54;51.28;98532.22;8516067;27;20230;-73
2022/05/08 06:12:50;;;;;;;11.40;6.10;;;;;;;16.70;50.45;98541.78;8515922;27;20426;-73
2022/05/08 06:16:55;;;;;;;11.47;5.80;;;;;;;16.92;49.94;98547.41;8514797;27;20235;-73
2022/05/08 06:20:58;;;;;;;13.50;6.80;;;;;;;16.64;49.76;98548.25;8515611;27;20228;-73
2022/05/08 06:25:01;;;;;;;9.40;6.60;;;;;;;16.71;49.63;98548.69;8515603;27;20237;-73
2022/05/08 06:29:04;;;;;;;10.57;6.23;;;;;;;17.12;50.01;98545.38;8515449;27;20238;-73
2022/05/08 06:33:08;;;;;;;6.80;5.70;;;;;;;17.26;49.10;98550.56;8515392;27;20237;-73
2022/05/08 06:37:12;;;;;;;9.23;5.83;;;;;;;17.38;48.54;98548.94;8515322;27;20232;-74
2022/05/08 06:41:15;;;;;;;7.20;5.80;;;;;;;17.70;48.85;98543.47;8515243;27;20221;-74
2022/05/08 06:45:23;;;;;;;10.27;5.40;;;;;;;17.96;48.88;98555.75;8515123;27;20424;-74
2022/05/08 06:49:28;;;;;;;10.40;5.60;;;;;;;18.12;48.31;98557.34;8514767;27;20233;-73
2022/05/08 06:53:32;;;;;;;8.43;5.73;;;;;;;18.36;48.21;98549.66;8514894;27;20225;-73
2022/05/08 06:57:35;;;;;;;9.67;5.17;;;;;;;18.64;47.55;98558.25;8514697;27;20233;-73
2022/05/08 07:01:40;;;;;;;6.70;4.80;;;;;;;18.50;47.02;98561.81;8514668;27;20236;-73
2022/05/08 07:05:45;;;;;;;4.80;4.23;;;;;;;18.94;45.20;98563.22;8514584;27;20232;-74
2022/05/08 07:09:48;;;;;;;8.47;4.40;;;;;;;19.26;44.50;98563.59;8515020;27;20244;-72
2022/05/08 07:13:51;;;;;;;6.53;4.23;;;;;;;19.33;44.22;98570.09;8514441;27;20243;-72
2022/05/08 07:17:54;;;;;;;7.73;4.20;;;;;;;19.60;44.14;98570.88;8514531;27;20233;-73
2022/05/08 07:21:59;;;;;;;9.00;4.87;;;;;;;19.66;44.41;98575.69;8514314;27;20520;-72
2022/05/08 07:26:02;;;;;;;6.07;4.00;;;;;;;19.77;43.64;98572.31;8514612;27;20239;-72
2022/05/08 07:30:06;;;;;;;5.60;4.27;;;;;;;20.23;43.66;98571.56;8518534;27;20228;-72
2022/05/08 07:38:33;;;;;;;6.70;4.20;;;;;;;20.59;42.50;98578.47;8502405;27;20425;-72
2022/05/08 07:42:36;;;;;;;8.47;3.97;;;;;;;20.85;42.28;98580.97;8520288;27;20404;-72
2022/05/08 07:46:39;;;;;;;5.40;3.87;;;;;;;21.11;41.76;98586.00;8520428;27;20240;-72
2022/05/08 07:50:42;;;;;;;9.33;4.33;;;;;;;21.01;42.00;98589.34;8520399;27;20285;-73
2022/05/08 07:54:46;;;;;;;9.17;4.50;;;;;;;21.41;41.49;98588.84;8520185;27;20387;-73
2022/05/08 07:58:49;;;;;;;5.47;4.10;;;;;;;21.66;40.44;98590.38;8520011;27;20220;-73
2022/05/08 08:02:52;;;;;;;5.10;3.80;;;;;;;22.00;39.15;98579.75;8519956;27;20225;-73
2022/05/08 08:06:56;;;;;;;6.13;4.00;;;;;;;22.23;39.46;98590.22;8519824;27;20233;-73
2022/05/08 08:11:03;;;;;;;10.27;3.90;;;;;;;21.93;38.51;98590.94;8519878;27;20417;-73
2022/05/08 08:15:08;;;;;;;6.90;3.60;;;;;;;22.42;37.75;98598.31;8519774;27;20237;-73
2022/05/08 08:19:11;;;;;;;5.03;3.57;;;;;;;22.77;37.45;98596.31;8519607;27;20235;-73
2022/05/08 08:23:14;;;;;;;5.20;3.57;;;;;;;22.74;37.14;98600.06;8519148;27;20229;-73
2022/05/08 08:27:19;;;;;;;7.67;3.87;;;;;;;23.09;36.60;98604.16;8519218;27;20423;-73
2022/05/08 08:31:22;;;;;;;6.27;2.90;;;;;;;23.55;36.20;98594.91;8518632;27;20231;-73
2022/05/08 08:35:25;;;;;;;6.23;3.47;;;;;;;23.94;35.93;98599.44;8518857;27;20297;-73
2022/05/08 08:39:28;;;;;;;4.97;3.53;;;;;;;24.15;35.47;98589.56;8517827;27;20235;-73
2022/05/08 08:47:42;;;;;;;6.70;3.30;;;;;;;23.93;31.84;98589.84;8518231;27;20229;-73
2022/05/08 08:47:58;;;;;;;4.73;2.80;;;;;;;24.63;32.39;98595.84;8518468;27;20237;-73
2022/05/08 08:52:01;;;;;;;5.83;3.17;;;;;;;24.57;31.99;98596.41;8518388;27;20239;-73
2022/05/08 08:56:05;;;;;;;8.87;3.10;;;;;;;24.69;30.96;98595.25;8518152;27;20246;-73
2022/05/08 09:00:10;;;;;;;4.60;3.20;;;;;;;24.86;30.34;98592.88;8518163;27;20235;-73
2022/05/08 09:04:15;;;;;;;6.40;3.30;;;;;;;24.85;30.91;98588.56;8518023;27;20234;-73
2022/05/08 09:08:26;;;;;;;7.30;3.50;;;;;;;24.20;29.27;98589.16;8517882;27;20288;-73
2022/05/08 09:12:29;;;;;;;6.20;3.00;;;;;;;25.12;29.19;98601.84;8517312;27;20229;-73
2022/05/08 09:16:52;;;;;;;6.50;3.07;;;;;;;24.92;29.96;98590.50;8517380;27;20321;-74
2022/05/08 09:21:54;;;;;;;5.80;2.70;;;;;;;25.54;29.83;98592.63;8517600;27;20435;-72
2022/05/08 09:25:21;;;;;;;3.97;2.80;;;;;;;25.66;28.93;98591.41;8517144;27;20232;-73
2022/05/08 09:29:27;;;;;;;3.10;2.00;;;;;;;26.13;28.53;98587.78;8516830;27;20240;-72
2022/05/08 09:33:51;;;;;;;6.27;3.10;;;;;;;25.76;28.60;98588.72;8516979;27;20228;-73
2022/05/08 09:37:56;;;;;;;3.50;2.40;;;;;;;26.23;27.11;98583.22;8516955;27;20251;-73
2022/05/08 09:41:59;;;;;;;4.40;2.20;;;;;;;26.01;25.57;98583.69;8516556;27;20231;-73
2022/05/08 09:46:03;;;;;;;3.27;2.00;;;;;;;25.81;25.60;98578.47;8516622;27;20236;-74
2022/05/08 09:50:09;;;;;;;6.83;2.60;;;;;;;24.90;26.88;98578.34;8516601;27;20552;-74
2022/05/08 09:54:14;;;;;;;4.63;2.10;;;;;;;26.04;26.90;98573.59;8516227;27;20229;-74
2022/05/08 09:58:17;;;;;;;5.73;2.50;;;;;;;26.08;24.51;98584.75;8516344;27;20551;-74
2022/05/08 10:02:21;;;;;;;5.87;2.70;;;;;;;26.48;26.26;98580.78;8516277;27;20236;-73
2022/05/08 10:06:28;;;;;;;6.20;2.50;;;;;;;26.16;24.91;98566.25;8512653;27;20426;-73
2022/05/08 10:14:53;;;;;;;5.33;2.80;;;;;;;25.31;26.49;98573.63;8515827;27;20224;-73
2022/05/08 10:18:56;;;;;;;11.03;9.43;;;;;;;26.25;26.13;98562.66;8515785;27;20230;-74
2022/05/08 10:23:01;;;;;;;17.33;11.37;;;;;;;26.77;27.35;98561.94;8515764;27;20540;-73
2022/05/08 10:27:11;;;;;;;5.70;3.60;;;;;;;26.10;25.83;98556.22;8515316;27;20235;-73
2022/05/08 10:31:51;;;;;;;3.70;2.30;;;;;;;26.55;25.42;98557.09;8515257;27;20224;-73
2022/05/08 10:36:07;;;;;;;4.73;2.03;;;;;;;26.22;24.97;98554.19;8515086;27;20235;-73
2022/05/08 10:40:33;;;;;;;4.77;2.00;;;;;;;25.96;23.88;98543.53;8515202;27;20228;-72
2022/05/08 10:44:37;;;;;;;3.97;2.40;;;;;;;26.12;24.62;98544.50;8514714;27;20241;-73
2022/05/08 10:48:40;;;;;;;6.03;2.50;;;;;;;25.44;25.95;98544.97;8515050;27;20329;-74
2022/05/08 10:52:43;;;;;;;3.77;2.10;;;;;;;25.83;25.27;98538.56;8515164;27;20225;-74
2022/05/08 10:56:48;;;;;;;3.13;2.03;;;;;;;25.01;24.72;98538.44;8514844;27;20232;-74
2022/05/08 11:00:56;;;;;;;5.90;2.13;;;;;;;24.46;25.90;98543.59;8515082;27;20235;-74
2022/05/08 11:04:59;;;;;;;2.97;2.07;;;;;;;25.41;24.75;98531.97;8518915;27;20231;-72
2022/05/08 11:09:02;;;;;;;5.30;2.43;;;;;;;25.77;24.25;98529.38;8521824;27;20246;-72
2022/05/08 11:13:09;;;;;;;6.30;2.30;;;;;;;25.07;24.31;98535.19;8521452;27;20233;-73
2022/05/08 11:17:20;;;;;;;4.03;2.17;;;;;;;26.24;25.91;98531.00;8521425;27;20286;-73
2022/05/08 11:21:23;;;;;;;3.00;2.30;;;;;;;26.55;25.05;98534.03;8520988;27;20229;-74
2022/05/08 11:25:26;;;;;;;4.50;2.37;;;;;;;26.20;24.40;98527.81;8521158;27;20234;-74
2022/05/08 11:29:30;;;;;;;5.13;2.03;;;;;;;26.22;24.40;98517.88;8520894;27;20238;-72
2022/05/08 11:38:01;;;;;;;9.80;2.40;;;;;;;25.43;25.42;98518.59;8520919;27;20418;-73
2022/05/08 11:42:07;;;;;;;2.80;2.10;;;;;;;24.90;26.38;98517.41;8520577;27;20229;-73
2022/05/08 11:46:16;;;;;;;7.03;2.57;;;;;;;25.33;24.78;98523.94;8520458;27;20569;-73
2022/05/08 11:50:26;;;;;;;9.23;2.80;;;;;;;25.30;24.63;98518.94;8520110;27;20231;-73
2022/05/08 11:54:30;;;;;;;3.33;2.20;;;;;;;24.70;25.52;98516.66;8520263;27;20228;-72
2022/05/08 11:58:34;;;;;;;5.23;2.13;;;;;;;25.82;24.63;98510.38;8520261;27;20235;-73
2022/05/08 12:02:42;;;;;;;3.73;2.20;;;;;;;26.57;24.24;98513.44;8520140;27;20325;-73
2022/05/08 12:06:56;;;;;;;4.40;2.10;;;;;;;25.77;23.88;98505.50;8520079;27;20246;-73
2022/05/08 12:10:59;;;;;;;3.60;2.10;;;;;;;26.01;23.54;98501.41;8519798;27;20235;-73
2022/05/08 12:15:17;;;;;;;4.93;2.10;;;;;;;26.40;25.09;98507.19;8519430;27;20521;-73
2022/05/08 12:19:21;;;;;;;3.37;2.13;;;;;;;25.43;26.15;98500.84;8519590;27;20293;-73
2022/05/08 12:23:25;;;;;;;3.83;2.20;;;;;;;25.24;26.92;98506.28;8518968;27;20527;-72
2022/05/08 12:27:28;;;;;;;3.30;1.93;;;;;;;25.25;26.62;98500.00;8518981;27;20254;-73
2022/05/08 12:31:31;;;;;;;3.10;2.00;;;;;;;26.09;25.94;98498.84;8519257;27;20229;-72
2022/05/08 12:35:37;;;;;;;3.37;2.10;;;;;;;26.81;24.88;98496.03;8518879;27;20288;-73
2022/05/08 12:39:40;;;;;;;2.97;2.10;;;;;;;26.35;24.43;98504.19;8518653;27;20231;-72
2022/05/08 12:43:43;;;;;;;5.20;2.20;;;;;;;25.16;25.53;98496.38;8518793;27;20223;-72
2022/05/08 12:47:46;;;;;;;4.30;2.40;;;;;;;25.08;27.38;98498.94;8518575;27;20235;-72
2022/05/08 12:51:51;;;;;;;3.13;2.50;;;;;;;24.78;27.35;98490.28;8518622;27;20231;-73
2022/05/08 12:55:54;;;;;;;3.70;2.27;;;;;;;24.74;27.80;98496.88;8518180;27;20527;-74
2022/05/08 13:00:00;;;;;;;2.77;2.30;;;;;;;24.69;28.34;98493.81;8518378;27;20233;-74
2022/05/08 13:04:04;;;;;;;4.67;2.77;;;;;;;24.64;28.37;98493.44;8518230;27;20236;-74
2022/05/08 13:08:13;;;;;;;5.73;2.50;;;;;;;25.01;27.54;98488.09;8518073;27;20239;-73
2022/05/08 13:12:16;;;;;;;4.93;2.73;;;;;;;25.01;27.16;98490.75;8517673;27;20236;-73
2022/05/08 13:16:22;;;;;;;3.93;2.53;;;;;;;25.72;27.55;98490.06;8517627;27;20418;-74
2022/05/08 13:20:25;;;;;;;4.27;2.50;;;;;;;26.30;26.78;98486.06;8517083;27;20237;-73
2022/05/08 13:24:30;;;;;;;8.00;2.43;;;;;;;27.18;27.21;98479.72;8517368;27;20495;-74
2022/05/08 13:28:33;;;;;;;4.07;2.30;;;;;;;26.90;25.32;98481.75;8516590;27;20245;-73
2022/05/08 13:32:37;;;;;;;3.17;2.40;;;;;;;26.97;25.32;98480.13;8516800;27;20222;-73
2022/05/08 13:36:40;;;;;;;5.13;2.60;;;;;;;25.93;27.05;98480.97;8516902;27;20235;-73
2022/05/08 13:40:45;;;;;;;5.27;3.00;;;;;;;25.48;26.39;98476.56;8517011;27;20531;-74
2022/05/08 13:44:49;;;;;;;4.37;2.67;;;;;;;25.64;26.90;98470.56;8516757;27;20231;-73
2022/05/08 13:48:52;;;;;;;4.07;2.90;;;;;;;26.10;26.93;98472.16;8516505;27;20233;-74
2022/05/08 13:52:56;;;;;;;6.33;3.50;;;;;;;25.95;25.92;98476.38;8516421;27;20404;-73
2022/05/08 13:57:02;;;;;;;4.40;2.80;;;;;;;26.13;25.55;98468.34;8516137;27;20248;-75
2022/05/08 14:01:06;;;;;;;5.90;3.03;;;;;;;25.99;26.32;98466.25;8516149;27;20229;-73
2022/05/08 14:05:09;;;;;;;4.60;2.97;;;;;;;25.54;28.16;98465.34;8516220;27;20226;-73
2022/05/08 14:09:12;;;;;;;4.27;3.17;;;;;;;25.49;28.97;98457.00;8515918;27;20555;-73
2022/05/08 14:13:22;;;;;;;8.53;3.40;;;;;;;25.38;29.54;98460.72;8515696;27;20238;-73
2022/05/08 14:17:25;;;;;;;5.97;3.60;;;;;;;25.39;30.14;98459.72;8515390;27;20230;-74
2022/05/08 14:21:28;;;;;;;5.83;3.20;;;;;;;25.13;29.73;98456.91;8515674;27;20230;-73
2022/05/08 14:25:31;;;;;;;4.27;2.97;;;;;;;25.32;28.97;98462.16;8515404;27;20232;-75
2022/05/08 14:29:36;;;;;;;6.53;3.30;;;;;;;25.60;29.22;98459.44;8515227;27;20232;-73
2022/05/08 14:37:59;;;;;;;4.53;3.03;;;;;;;25.58;28.84;98458.75;8514641;27;20234;-74
2022/05/08 14:42:02;;;;;;;6.00;3.13;;;;;;;25.37;29.07;98451.09;8515246;27;20229;-73
2022/05/08 14:46:06;;;;;;;4.00;2.90;;;;;;;25.92;28.98;98450.13;8515090;27;20229;-73
2022/05/08 14:50:10;;;;;;;4.67;3.10;;;;;;;26.20;27.87;98442.88;8515381;27;20435;-73
2022/05/08 14:54:13;;;;;;;5.83;3.10;;;;;;;25.92;28.22;98443.00;8515214;27;20231;-73
2022/05/08 14:58:17;;;;;;;4.17;2.87;;;;;;;26.32;29.31;98441.59;8514990;27;20277;-73
2022/05/08 15:02:21;;;;;;;5.27;3.40;;;;;;;26.09;27.18;98446.59;8514823;27;20230;-73
2022/05/08 15:06:31;;;;;;;6.83;3.37;;;;;;;25.83;28.13;98443.06;8514436;27;20494;-73
2022/05/08 15:10:34;;;;;;;5.07;3.47;;;;;;;25.22;28.08;98444.59;8514782;27;20239;-73
2022/05/08 15:14:37;;;;;;;5.60;3.50;;;;;;;24.92;29.46;98439.50;8514772;27;20229;-73
2022/05/08 15:18:51;;;;;;;9.50;3.83;;;;;;;24.53;30.16;98446.78;8514382;27;20237;-73
2022/05/08 15:22:55;;;;;;;8.07;4.27;;;;;;;24.46;29.79;98441.16;8514531;27;20233;-75
2022/05/08 15:26:58;;;;;;;5.17;3.50;;;;;;;24.41;32.21;98446.09;8500629;27;20548;-73
2022/05/08 15:31:01;;;;;;;8.00;3.87;;;;;;;24.20;32.46;98444.47;8480539;28;20242;-71
2022/05/08 15:35:07;;;;;;;4.67;3.87;;;;;;;24.00;32.84;98454.22;8480250;28;20229;-71
2022/05/08 15:39:10;;;;;;;7.97;5.03;;;;;;;23.61;32.93;98448.94;8480159;28;20232;-70
2022/05/08 15:43:14;;;;;;;214.83;12.57;;;;;;;23.55;34.60;98457.44;8479933;28;20246;-73
2022/05/08 15:47:17;;;;;;;9.20;5.80;;;;;;;23.34;34.67;98454.06;8479924;28;20425;-71
2022/05/08 15:51:21;;;;;;;12.60;6.40;;;;;;;23.16;35.59;98461.84;8484131;28;20503;-73
2022/05/08 15:55:26;;;;;;;9.57;6.00;;;;;;;23.16;35.33;98457.38;8485616;27;20524;-73
2022/05/08 15:59:29;;;;;;;9.07;5.67;;;;;;;22.98;36.09;98449.25;8485082;27;20342;-74
2022/05/08 16:03:32;;;;;;;10.40;5.20;;;;;;;22.96;36.63;98456.47;8519714;27;20232;-73
2022/05/08 16:07:37;;;;;;;6.57;5.50;;;;;;;22.89;35.64;98454.50;8519788;27;20240;-73
2022/05/08 16:11:40;;;;;;;8.37;5.13;;;;;;;22.84;36.48;98457.53;8499867;27;20240;-74
2022/05/08 16:24:30;;;;;;;9.40;4.57;;;;;;;22.79;36.66;98470.28;8500473;27;20233;-73
2022/05/08 16:28:34;;;;;;;7.30;4.87;;;;;;;22.61;37.08;98484.13;8518723;27;20238;-72
2022/05/08 16:32:37;;;;;;;5.57;4.20;;;;;;;22.50;37.19;98478.09;8504406;27;20244;-74
2022/05/08 16:36:41;;;;;;;6.67;3.40;;;;;;;22.50;36.19;98480.72;8517891;27;20220;-74
2022/05/08 16:40:45;;;;;;;7.60;3.57;;;;;;;22.35;35.81;98480.22;8517787;27;20239;-74
2022/05/08 16:44:48;;;;;;;6.77;4.60;;;;;;;22.29;36.18;98484.22;8515215;27;20221;-73
2022/05/08 16:48:51;;;;;;;7.27;5.50;;;;;;;22.06;36.83;98494.03;8517616;27;20230;-74
2022/05/08 16:52:54;;;;;;;6.67;5.90;;;;;;;22.13;38.16;98487.28;8517676;27;20512;-74
2022/05/08 16:56:59;;;;;;;8.37;5.67;;;;;;;22.37;38.73;98496.75;8517620;27;20232;-73
2022/05/08 17:01:02;;;;;;;7.10;6.40;;;;;;;22.47;39.16;98512.69;8485923;27;20246;-73
2022/05/08 17:05:05;;;;;;;8.83;8.03;;;;;;;22.29;39.42;98505.31;8483559;28;20539;-73
2022/05/08 17:09:08;;;;;;;8.83;6.50;;;;;;;22.52;39.62;98513.94;8483264;28;20248;-74
2022/05/08 17:13:13;;;;;;;11.53;8.27;;;;;;;22.34;40.45;98512.88;8483201;27;20241;-73
2022/05/08 17:17:18;;;;;;;9.83;7.27;;;;;;;22.48;40.01;98524.88;8483248;27;20229;-73
2022/05/08 17:21:21;;;;;;;13.03;7.93;;;;;;;22.49;39.63;98526.56;8482628;28;20259;-74
2022/05/08 17:25:24;;;;;;;10.83;8.47;;;;;;;22.44;39.84;98537.50;8761603;22;20246;-72
2022/05/08 17:29:29;;;;;;;8.27;7.47;;;;;;;22.49;40.01;98543.22;8364102;28;20236;-74
2022/05/08 17:33:32;;;;;;;8.57;7.27;;;;;;;22.35;40.33;98539.13;8368400;28;20240;-73
2022/05/08 17:37:37;;;;;;;12.73;8.17;;;;;;;22.31;40.15;98540.31;8382087;28;20298;-74
2022/05/08 17:41:41;;;;;;;11.37;7.87;;;;;;;22.17;40.96;98535.34;8381660;28;20230;-74
2022/05/08 17:45:48;;;;;;;10.97;7.00;;;;;;;22.24;41.08;98537.34;8381766;28;20233;-74
2022/05/08 17:49:51;;;;;;;8.40;7.60;;;;;;;22.13;41.58;98545.31;8381196;28;20230;-75
2022/05/08 17:53:55;;;;;;;10.03;7.13;;;;;;;22.11;41.66;98547.25;8381522;28;20231;-72
2022/05/08 17:57:58;;;;;;;16.90;13.93;;;;;;;22.01;40.50;98544.53;8374050;28;20416;-74
2022/05/08 18:06:26;;;;;;;11.33;7.10;;;;;;;21.94;41.55;98558.34;8354025;28;20230;-76
2022/05/08 18:10:31;;;;;;;9.63;7.63;;;;;;;21.91;41.85;98553.31;8348031;28;20253;-75
2022/05/08 18:14:43;;;;;;;9.27;8.20;;;;;;;21.88;42.19;98562.31;8350884;28;20228;-75
2022/05/08 18:18:48;;;;;;;8.60;7.67;;;;;;;21.83;42.44;98562.69;8363767;28;20421;-75
2022/05/08 18:22:51;;;;;;;9.40;8.50;;;;;;;21.71;42.51;98574.22;8371729;28;20227;-74
2022/05/08 18:26:54;;;;;;;7.77;6.97;;;;;;;21.62;42.80;98582.88;8364169;28;20227;-75
2022/05/08 18:31:00;;;;;;;8.37;6.83;;;;;;;21.59;42.91;98583.09;8365442;28;20239;-75
2022/05/08 18:35:06;;;;;;;9.43;7.17;;;;;;;21.56;42.97;98586.00;8369009;28;20722;-75
2022/05/08 18:39:08;;;;;;;9.90;7.30;;;;;;;21.52;43.91;98601.22;8358781;28;20238;-75
2022/05/08 18:43:11;;;;;;;6.80;6.20;;;;;;;21.51;43.56;98602.16;8347167;28;20432;-73
2022/05/08 18:47:15;;;;;;;6.87;6.27;;;;;;;21.29;42.80;98606.47;8377694;28;20231;-74
2022/05/08 18:51:19;;;;;;;7.53;5.90;;;;;;;21.31;44.01;98611.63;8363328;28;20527;-74
2022/05/08 18:55:25;;;;;;;8.37;6.30;;;;;;;21.32;43.46;98613.28;8379739;28;20420;-76
2022/05/08 18:59:31;;;;;;;6.20;5.20;;;;;;;21.21;43.30;98613.28;8380282;28;20535;-73
2022/05/08 19:03:33;;;;;;;6.57;5.87;;;;;;;21.17;42.97;98617.97;8369076;28;20536;-75
2022/05/08 19:07:38;;;;;;;12.70;6.03;;;;;;;21.03;42.95;98619.00;8360460;28;20526;-74
2022/05/08 19:11:41;;;;;;;6.43;5.40;;;;;;;20.86;43.18;98625.56;8361910;28;20242;-74
2022/05/08 19:15:45;;;;;;;7.87;4.80;;;;;;;20.77;43.39;98626.28;8363098;28;20511;-75
2022/05/08 19:19:49;;;;;;;6.50;5.10;;;;;;;20.67;43.59;98631.38;8362640;28;20231;-74
2022/05/08 19:23:53;;;;;;;7.80;5.20;;;;;;;20.65;43.63;98632.47;8363233;28;20236;-75
2022/05/08 19:27:57;;;;;;;11.33;8.63;;;;;;;20.54;43.89;98640.28;8370228;28;20238;-75
2022/05/08 19:40:42;;;;;;;6.30;4.83;;;;;;;20.77;43.60;98659.66;8369956;28;20228;-75
2022/05/08 19:44:45;;;;;;;8.23;5.37;;;;;;;20.62;43.99;98659.00;8368629;28;20228;-75
2022/05/08 19:48:48;;;;;;;9.07;4.70;;;;;;;20.51;44.38;98652.72;8371123;28;20425;-75
2022/05/08 19:52:51;;;;;;;5.37;4.83;;;;;;;20.36;44.62;98663.56;8368612;28;20396;-76
2022/05/08 19:56:55;;;;;;;4.63;4.13;;;;;;;20.29;44.77;98660.53;8367754;28;20239;-75
2022/05/08 20:00:58;;;;;;;6.17;4.50;;;;;;;20.33;44.48;98666.41;8370886;28;20236;-73